Amidon, North Dakota
Current Conditions -  °F | °C
As of 3:56 AM on Sunday 21 Dec 2014 (Local Time) from KDIK Reporting Station
Clear Clear  
Wind Chill: 16°   Ceiling: Unl
Heat Index: 27°   Visibility: 10mi
Dew Point: 21°   Wind: 13mph
Humidity: 78%   Direction: 170°S
Pressure: 29.57"   Gusts: NA
Location:  46.48°N, 103.32°W
Report Text: KDIK 211056Z AUTO 17011KT 10SM CLR M03/M06 A2957 RMK AO2 SLP038 T10281061
Loading
Personal Weather Stations






























Interactive Weather Map New forecast layout! Learn more

10-Day Weather Forecast

Advertisements
Track Severe Weather on mobile